sensor_id;sensor_type;location;lat;lon;timestamp;temperature;humidity
2391;DHT22;22957;50.824;4.360;2023-05-21T00:00:14;16.70;99.90
2391;DHT22;22957;50.824;4.360;2023-05-21T00:02:40;16.40;99.90
2391;DHT22;22957;50.824;4.360;2023-05-21T00:05:07;16.40;99.90
2391;DHT22;22957;50.824;4.360;2023-05-21T00:07:35;16.10;99.90
2391;DHT22;22957;50.824;4.360;2023-05-21T00:10:01;16.30;99.90
2391;DHT22;22957;50.824;4.360;2023-05-21T00:12:27;16.10;99.90
2391;DHT22;22957;50.824;4.360;2023-05-21T00:14:53;16.30;99.90
2391;DHT22;22957;50.824;4.360;2023-05-21T00:17:18;16.30;99.90
2391;DHT22;22957;50.824;4.360;2023-05-21T00:19:44;16.30;99.90
2391;DHT22;22957;50.824;4.360;2023-05-21T00:22:09;16.60;99.90
2391;DHT22;22957;50.824;4.360;2023-05-21T00:24:35;16.00;99.90
2391;DHT22;22957;50.824;4.360;2023-05-21T00:27:01;16.50;99.90
2391;DHT22;22957;50.824;4.360;2023-05-21T00:29:26;15.80;99.90
2391;DHT22;22957;50.824;4.360;2023-05-21T00:31:54;15.60;99.90
2391;DHT22;22957;50.824;4.360;2023-05-21T00:34:20;15.80;99.90
2391;DHT22;22957;50.824;4.360;2023-05-21T00:36:45;16.50;99.90
2391;DHT22;22957;50.824;4.360;2023-05-21T00:39:12;16.00;99.90
2391;DHT22;22957;50.824;4.360;2023-05-21T00:41:38;16.60;99.90
2391;DHT22;22957;50.824;4.360;2023-05-21T00:44:08;16.90;99.90
2391;DHT22;22957;50.824;4.360;2023-05-21T00:46:34;16.40;99.90
2391;DHT22;22957;50.824;4.360;2023-05-21T00:48:59;15.80;99.90
2391;DHT22;22957;50.824;4.360;2023-05-21T00:51:26;16.30;99.90
2391;DHT22;22957;50.824;4.360;2023-05-21T00:53:55;16.60;99.90
2391;DHT22;22957;50.824;4.360;2023-05-21T00:56:22;16.60;99.90
2391;DHT22;22957;50.824;4.360;2023-05-21T00:58:49;16.90;99.90
2391;DHT22;22957;50.824;4.360;2023-05-21T01:01:16;16.30;99.90
2391;DHT22;22957;50.824;4.360;2023-05-21T01:03:42;16.00;99.90
2391;DHT22;22957;50.824;4.360;2023-05-21T01:06:10;16.40;99.90
2391;DHT22;22957;50.824;4.360;2023-05-21T01:08:37;15.90;99.90
2391;DHT22;22957;50.824;4.360;2023-05-21T01:11:06;16.10;99.90
2391;DHT22;22957;50.824;4.360;2023-05-21T01:13:33;15.80;99.90
2391;DHT22;22957;50.824;4.360;2023-05-21T01:16:02;15.90;99.90
2391;DHT22;22957;50.824;4.360;2023-05-21T01:18:31;16.20;99.90
2391;DHT22;22957;50.824;4.360;2023-05-21T01:21:00;16.10;99.90
2391;DHT22;22957;50.824;4.360;2023-05-21T01:23:26;16.30;99.90
2391;DHT22;22957;50.824;4.360;2023-05-21T01:25:52;16.20;99.90
2391;DHT22;22957;50.824;4.360;2023-05-21T01:28:17;16.30;99.90
2391;DHT22;22957;50.824;4.360;2023-05-21T01:30:43;16.10;99.90
2391;DHT22;22957;50.824;4.360;2023-05-21T01:33:24;16.10;99.90
2391;DHT22;22957;50.824;4.360;2023-05-21T01:36:05;16.30;99.90
2391;DHT22;22957;50.824;4.360;2023-05-21T01:41:10;16.20;99.90
2391;DHT22;22957;50.824;4.360;2023-05-21T01:43:38;15.60;99.90
2391;DHT22;22957;50.824;4.360;2023-05-21T01:46:08;15.60;99.90
2391;DHT22;22957;50.824;4.360;2023-05-21T01:48:35;15.20;99.90
2391;DHT22;22957;50.824;4.360;2023-05-21T01:51:03;15.10;99.90
2391;DHT22;22957;50.824;4.360;2023-05-21T01:53:29;15.00;99.90
2391;DHT22;22957;50.824;4.360;2023-05-21T01:55:55;15.00;99.90
2391;DHT22;22957;50.824;4.360;2023-05-21T01:58:21;15.60;99.90
2391;DHT22;22957;50.824;4.360;2023-05-21T02:00:47;15.90;99.90
2391;DHT22;22957;50.824;4.360;2023-05-21T02:03:16;15.60;99.90
2391;DHT22;22957;50.824;4.360;2023-05-21T02:05:42;14.70;99.90
2391;DHT22;22957;50.824;4.360;2023-05-21T02:08:08;14.90;99.90
2391;DHT22;22957;50.824;4.360;2023-05-21T02:10:37;15.00;99.90
2391;DHT22;22957;50.824;4.360;2023-05-21T02:13:02;14.80;99.90
2391;DHT22;22957;50.824;4.360;2023-05-21T02:15:28;15.20;99.90
2391;DHT22;22957;50.824;4.360;2023-05-21T02:17:54;15.60;99.90
2391;DHT22;22957;50.824;4.360;2023-05-21T02:20:20;15.10;99.90
2391;DHT22;22957;50.824;4.360;2023-05-21T02:22:47;15.10;99.90
2391;DHT22;22957;50.824;4.360;2023-05-21T02:25:16;14.90;99.90
2391;DHT22;22957;50.824;4.360;2023-05-21T02:27:42;15.10;99.90
2391;DHT22;22957;50.824;4.360;2023-05-21T02:30:10;15.20;99.90
2391;DHT22;22957;50.824;4.360;2023-05-21T02:32:36;15.20;99.90
2391;DHT22;22957;50.824;4.360;2023-05-21T02:35:03;15.40;99.90
2391;DHT22;22957;50.824;4.360;2023-05-21T02:37:30;15.30;99.90
2391;DHT22;22957;50.824;4.360;2023-05-21T02:40:00;15.50;99.90
2391;DHT22;22957;50.824;4.360;2023-05-21T02:42:26;15.80;99.90
2391;DHT22;22957;50.824;4.360;2023-05-21T02:44:51;15.10;99.90
2391;DHT22;22957;50.824;4.360;2023-05-21T02:47:18;15.30;99.90
2391;DHT22;22957;50.824;4.360;2023-05-21T02:49:44;15.70;99.90
2391;DHT22;22957;50.824;4.360;2023-05-21T02:52:10;15.00;99.90
2391;DHT22;22957;50.824;4.360;2023-05-21T02:54:36;15.10;99.90
2391;DHT22;22957;50.824;4.360;2023-05-21T02:57:01;15.50;99.90
2391;DHT22;22957;50.824;4.360;2023-05-21T02:59:27;15.50;99.90
2391;DHT22;22957;50.824;4.360;2023-05-21T03:01:53;15.20;99.90
2391;DHT22;22957;50.824;4.360;2023-05-21T03:04:18;14.60;99.90
2391;DHT22;22957;50.824;4.360;2023-05-21T03:06:49;14.70;99.90
2391;DHT22;22957;50.824;4.360;2023-05-21T03:09:20;14.40;99.90
2391;DHT22;22957;50.824;4.360;2023-05-21T03:11:46;14.50;99.90
2391;DHT22;22957;50.824;4.360;2023-05-21T03:14:12;15.00;99.90
2391;DHT22;22957;50.824;4.360;2023-05-21T03:16:37;14.80;99.90
2391;DHT22;22957;50.824;4.360;2023-05-21T03:19:06;14.20;99.90
2391;DHT22;22957;50.824;4.360;2023-05-21T03:21:32;14.40;99.90
2391;DHT22;22957;50.824;4.360;2023-05-21T03:23:58;14.70;99.90
2391;DHT22;22957;50.824;4.360;2023-05-21T03:26:25;15.40;99.90
2391;DHT22;22957;50.824;4.360;2023-05-21T03:28:55;15.30;99.90
2391;DHT22;22957;50.824;4.360;2023-05-21T03:31:21;14.60;99.90
2391;DHT22;22957;50.824;4.360;2023-05-21T03:33:47;15.00;99.90
2391;DHT22;22957;50.824;4.360;2023-05-21T03:36:13;14.70;99.90
2391;DHT22;22957;50.824;4.360;2023-05-21T03:38:38;14.50;99.90
2391;DHT22;22957;50.824;4.360;2023-05-21T03:41:06;14.70;99.90
2391;DHT22;22957;50.824;4.360;2023-05-21T03:43:32;15.00;99.90
2391;DHT22;22957;50.824;4.360;2023-05-21T03:45:58;15.20;99.90
2391;DHT22;22957;50.824;4.360;2023-05-21T03:48:24;15.90;99.90
2391;DHT22;22957;50.824;4.360;2023-05-21T03:50:50;15.80;99.90
2391;DHT22;22957;50.824;4.360;2023-05-21T03:53:16;15.00;99.90
2391;DHT22;22957;50.824;4.360;2023-05-21T03:55:41;14.50;99.90
2391;DHT22;22957;50.824;4.360;2023-05-21T03:58:07;14.20;99.90
2391;DHT22;22957;50.824;4.360;2023-05-21T04:00:35;14.90;99.90
2391;DHT22;22957;50.824;4.360;2023-05-21T04:03:04;15.00;99.90
2391;DHT22;22957;50.824;4.360;2023-05-21T04:05:31;15.50;99.90
2391;DHT22;22957;50.824;4.360;2023-05-21T04:07:57;14.60;99.90
2391;DHT22;22957;50.824;4.360;2023-05-21T04:10:23;14.50;99.90
2391;DHT22;22957;50.824;4.360;2023-05-21T04:12:48;14.60;99.90
2391;DHT22;22957;50.824;4.360;2023-05-21T04:15:19;14.30;99.90
2391;DHT22;22957;50.824;4.360;2023-05-21T04:17:45;14.30;99.90
2391;DHT22;22957;50.824;4.360;2023-05-21T04:20:14;14.50;99.90
2391;DHT22;22957;50.824;4.360;2023-05-21T04:22:44;14.30;99.90
2391;DHT22;22957;50.824;4.360;2023-05-21T04:25:09;14.60;99.90
2391;DHT22;22957;50.824;4.360;2023-05-21T04:27:35;14.70;99.90
2391;DHT22;22957;50.824;4.360;2023-05-21T04:30:02;14.80;99.90
2391;DHT22;22957;50.824;4.360;2023-05-21T04:32:31;14.80;99.90
2391;DHT22;22957;50.824;4.360;2023-05-21T04:34:59;15.00;99.90
2391;DHT22;22957;50.824;4.360;2023-05-21T04:37:26;15.10;99.90
2391;DHT22;22957;50.824;4.360;2023-05-21T04:39:56;14.20;99.90
2391;DHT22;22957;50.824;4.360;2023-05-21T04:42:21;14.60;99.90
2391;DHT22;22957;50.824;4.360;2023-05-21T04:44:50;15.20;99.90
2391;DHT22;22957;50.824;4.360;2023-05-21T04:47:16;15.00;99.90
2391;DHT22;22957;50.824;4.360;2023-05-21T04:49:43;15.00;99.90
2391;DHT22;22957;50.824;4.360;2023-05-21T04:52:09;16.10;99.90
2391;DHT22;22957;50.824;4.360;2023-05-21T04:54:35;14.90;99.90
2391;DHT22;22957;50.824;4.360;2023-05-21T04:57:03;15.60;99.90
2391;DHT22;22957;50.824;4.360;2023-05-21T04:59:29;15.00;99.90
2391;DHT22;22957;50.824;4.360;2023-05-21T05:01:55;15.20;99.90
2391;DHT22;22957;50.824;4.360;2023-05-21T05:04:20;15.40;99.90
2391;DHT22;22957;50.824;4.360;2023-05-21T05:06:46;15.70;99.90
2391;DHT22;22957;50.824;4.360;2023-05-21T05:09:11;15.10;99.90
2391;DHT22;22957;50.824;4.360;2023-05-21T05:11:37;15.80;99.90
2391;DHT22;22957;50.824;4.360;2023-05-21T05:14:03;14.90;99.90
2391;DHT22;22957;50.824;4.360;2023-05-21T05:16:28;15.20;99.90
2391;DHT22;22957;50.824;4.360;2023-05-21T05:18:54;15.60;99.90
2391;DHT22;22957;50.824;4.360;2023-05-21T05:21:21;15.60;99.90
2391;DHT22;22957;50.824;4.360;2023-05-21T05:23:48;14.70;99.90
2391;DHT22;22957;50.824;4.360;2023-05-21T05:26:14;14.90;99.90
2391;DHT22;22957;50.824;4.360;2023-05-21T05:28:40;15.00;99.90
2391;DHT22;22957;50.824;4.360;2023-05-21T05:31:05;14.90;99.90
2391;DHT22;22957;50.824;4.360;2023-05-21T05:33:31;15.20;99.90
2391;DHT22;22957;50.824;4.360;2023-05-21T05:35:57;14.60;99.90
2391;DHT22;22957;50.824;4.360;2023-05-21T05:38:22;15.40;99.90
2391;DHT22;22957;50.824;4.360;2023-05-21T05:40:48;15.90;99.90
2391;DHT22;22957;50.824;4.360;2023-05-21T05:43:14;15.90;99.90
2391;DHT22;22957;50.824;4.360;2023-05-21T05:45:39;15.50;99.90
2391;DHT22;22957;50.824;4.360;2023-05-21T05:48:05;16.40;99.90
2391;DHT22;22957;50.824;4.360;2023-05-21T05:50:31;17.00;99.90
2391;DHT22;22957;50.824;4.360;2023-05-21T05:52:56;16.50;99.90
2391;DHT22;22957;50.824;4.360;2023-05-21T05:55:22;17.40;99.90
2391;DHT22;22957;50.824;4.360;2023-05-21T05:57:49;16.30;99.90
2391;DHT22;22957;50.824;4.360;2023-05-21T06:00:15;17.30;99.90
2391;DHT22;22957;50.824;4.360;2023-05-21T06:02:41;17.20;99.90
2391;DHT22;22957;50.824;4.360;2023-05-21T06:05:06;16.60;99.90
2391;DHT22;22957;50.824;4.360;2023-05-21T06:07:36;16.60;99.90
2391;DHT22;22957;50.824;4.360;2023-05-21T06:10:04;15.50;99.90
2391;DHT22;22957;50.824;4.360;2023-05-21T06:12:30;16.70;99.90
2391;DHT22;22957;50.824;4.360;2023-05-21T06:14:55;17.80;99.90
2391;DHT22;22957;50.824;4.360;2023-05-21T06:17:21;16.90;99.90
2391;DHT22;22957;50.824;4.360;2023-05-21T06:19:46;17.30;99.90
2391;DHT22;22957;50.824;4.360;2023-05-21T06:22:12;17.40;99.90
2391;DHT22;22957;50.824;4.360;2023-05-21T06:24:38;17.40;99.90
2391;DHT22;22957;50.824;4.360;2023-05-21T06:27:03;17.50;99.90
2391;DHT22;22957;50.824;4.360;2023-05-21T06:29:29;17.50;99.90
2391;DHT22;22957;50.824;4.360;2023-05-21T06:31:55;17.30;99.90
2391;DHT22;22957;50.824;4.360;2023-05-21T06:34:20;18.20;99.90
2391;DHT22;22957;50.824;4.360;2023-05-21T06:36:47;17.40;99.90
2391;DHT22;22957;50.824;4.360;2023-05-21T06:39:12;17.60;99.90
2391;DHT22;22957;50.824;4.360;2023-05-21T06:41:38;17.80;99.90
2391;DHT22;22957;50.824;4.360;2023-05-21T06:44:04;18.10;99.90
2391;DHT22;22957;50.824;4.360;2023-05-21T06:46:30;18.50;99.90
2391;DHT22;22957;50.824;4.360;2023-05-21T06:48:56;19.30;99.90
2391;DHT22;22957;50.824;4.360;2023-05-21T06:51:21;19.20;99.90
2391;DHT22;22957;50.824;4.360;2023-05-21T06:53:47;19.70;99.90
2391;DHT22;22957;50.824;4.360;2023-05-21T06:56:13;18.60;99.90
2391;DHT22;22957;50.824;4.360;2023-05-21T06:58:38;16.90;99.90
2391;DHT22;22957;50.824;4.360;2023-05-21T07:01:04;17.90;99.90
2391;DHT22;22957;50.824;4.360;2023-05-21T07:03:30;17.90;99.90
2391;DHT22;22957;50.824;4.360;2023-05-21T07:05:56;17.60;99.90
2391;DHT22;22957;50.824;4.360;2023-05-21T07:08:22;18.00;99.90
2391;DHT22;22957;50.824;4.360;2023-05-21T07:10:48;17.90;99.90
2391;DHT22;22957;50.824;4.360;2023-05-21T07:13:14;18.60;99.90
2391;DHT22;22957;50.824;4.360;2023-05-21T07:15:40;20.10;99.90
2391;DHT22;22957;50.824;4.360;2023-05-21T07:18:06;18.10;99.90
2391;DHT22;22957;50.824;4.360;2023-05-21T07:20:31;18.00;99.90
2391;DHT22;22957;50.824;4.360;2023-05-21T07:22:57;18.70;99.90
2391;DHT22;22957;50.824;4.360;2023-05-21T07:25:22;17.70;99.90
2391;DHT22;22957;50.824;4.360;2023-05-21T07:27:48;17.40;99.90
2391;DHT22;22957;50.824;4.360;2023-05-21T07:30:14;17.60;99.90
2391;DHT22;22957;50.824;4.360;2023-05-21T07:32:40;19.00;99.90
2391;DHT22;22957;50.824;4.360;2023-05-21T07:35:05;18.60;99.90
2391;DHT22;22957;50.824;4.360;2023-05-21T07:37:31;19.20;99.90
2391;DHT22;22957;50.824;4.360;2023-05-21T07:39:57;17.90;99.90
2391;DHT22;22957;50.824;4.360;2023-05-21T07:42:26;19.40;99.90
2391;DHT22;22957;50.824;4.360;2023-05-21T07:44:51;20.10;99.90
2391;DHT22;22957;50.824;4.360;2023-05-21T07:47:17;22.50;99.90
2391;DHT22;22957;50.824;4.360;2023-05-21T07:49:43;19.30;99.90
2391;DHT22;22957;50.824;4.360;2023-05-21T07:52:08;20.40;99.90
2391;DHT22;22957;50.824;4.360;2023-05-21T07:54:34;21.40;99.90
2391;DHT22;22957;50.824;4.360;2023-05-21T07:57:00;22.40;99.90
2391;DHT22;22957;50.824;4.360;2023-05-21T07:59:27;22.30;99.90
2391;DHT22;22957;50.824;4.360;2023-05-21T08:01:53;21.20;99.90
2391;DHT22;22957;50.824;4.360;2023-05-21T08:04:19;20.70;99.90
2391;DHT22;22957;50.824;4.360;2023-05-21T08:06:45;20.70;99.90
2391;DHT22;22957;50.824;4.360;2023-05-21T08:09:10;20.20;99.90
2391;DHT22;22957;50.824;4.360;2023-05-21T08:11:36;19.90;99.90
2391;DHT22;22957;50.824;4.360;2023-05-21T08:14:02;20.40;99.90
2391;DHT22;22957;50.824;4.360;2023-05-21T08:16:28;22.70;99.90
2391;DHT22;22957;50.824;4.360;2023-05-21T08:18:54;21.90;99.90
2391;DHT22;22957;50.824;4.360;2023-05-21T08:21:19;23.80;99.90
2391;DHT22;22957;50.824;4.360;2023-05-21T08:23:45;22.30;99.90
2391;DHT22;22957;50.824;4.360;2023-05-21T08:26:10;20.10;99.90
2391;DHT22;22957;50.824;4.360;2023-05-21T08:28:39;20.90;99.90
2391;DHT22;22957;50.824;4.360;2023-05-21T08:31:04;19.30;99.90
2391;DHT22;22957;50.824;4.360;2023-05-21T08:33:30;20.60;99.90
2391;DHT22;22957;50.824;4.360;2023-05-21T08:35:56;20.70;99.90
2391;DHT22;22957;50.824;4.360;2023-05-21T08:38:21;24.00;99.90
2391;DHT22;22957;50.824;4.360;2023-05-21T08:40:49;24.80;99.90
2391;DHT22;22957;50.824;4.360;2023-05-21T08:43:16;24.50;99.90
2391;DHT22;22957;50.824;4.360;2023-05-21T08:45:44;23.10;99.90
2391;DHT22;22957;50.824;4.360;2023-05-21T08:48:10;21.10;99.90
2391;DHT22;22957;50.824;4.360;2023-05-21T08:50:36;23.80;99.90
2391;DHT22;22957;50.824;4.360;2023-05-21T08:53:02;24.40;99.90
2391;DHT22;22957;50.824;4.360;2023-05-21T08:55:28;23.70;99.90
2391;DHT22;22957;50.824;4.360;2023-05-21T08:57:55;23.30;99.90
2391;DHT22;22957;50.824;4.360;2023-05-21T09:00:21;25.30;99.90
2391;DHT22;22957;50.824;4.360;2023-05-21T09:02:47;23.20;99.90
2391;DHT22;22957;50.824;4.360;2023-05-21T09:05:14;26.20;99.90
2391;DHT22;22957;50.824;4.360;2023-05-21T09:07:48;25.00;99.90
2391;DHT22;22957;50.824;4.360;2023-05-21T09:10:16;26.70;99.90
2391;DHT22;22957;50.824;4.360;2023-05-21T09:12:43;27.30;99.40
2391;DHT22;22957;50.824;4.360;2023-05-21T09:15:09;21.70;99.90
2391;DHT22;22957;50.824;4.360;2023-05-21T09:17:35;22.00;99.90
2391;DHT22;22957;50.824;4.360;2023-05-21T09:20:09;23.40;99.90
2391;DHT22;22957;50.824;4.360;2023-05-21T09:22:47;23.20;99.90
2391;DHT22;22957;50.824;4.360;2023-05-21T09:25:15;24.80;99.90
2391;DHT22;22957;50.824;4.360;2023-05-21T09:27:41;24.40;99.90
2391;DHT22;22957;50.824;4.360;2023-05-21T09:30:14;24.60;99.90
2391;DHT22;22957;50.824;4.360;2023-05-21T09:32:41;26.10;99.90
2391;DHT22;22957;50.824;4.360;2023-05-21T09:35:11;24.60;99.90
2391;DHT22;22957;50.824;4.360;2023-05-21T09:37:38;24.30;99.90
2391;DHT22;22957;50.824;4.360;2023-05-21T09:40:12;24.40;99.90
2391;DHT22;22957;50.824;4.360;2023-05-21T09:42:40;23.30;99.90
2391;DHT22;22957;50.824;4.360;2023-05-21T09:45:07;24.10;99.90
2391;DHT22;22957;50.824;4.360;2023-05-21T09:47:33;26.30;99.90
2391;DHT22;22957;50.824;4.360;2023-05-21T09:49:59;27.70;99.10
2391;DHT22;22957;50.824;4.360;2023-05-21T09:52:25;27.00;98.20
2391;DHT22;22957;50.824;4.360;2023-05-21T09:54:52;26.90;99.90
2391;DHT22;22957;50.824;4.360;2023-05-21T09:57:25;26.70;98.70
2391;DHT22;22957;50.824;4.360;2023-05-21T09:59:51;26.80;99.80
2391;DHT22;22957;50.824;4.360;2023-05-21T10:02:19;25.00;99.70
2391;DHT22;22957;50.824;4.360;2023-05-21T10:04:47;24.70;99.90
2391;DHT22;22957;50.824;4.360;2023-05-21T10:07:15;26.70;99.90
2391;DHT22;22957;50.824;4.360;2023-05-21T10:09:45;26.40;99.90
2391;DHT22;22957;50.824;4.360;2023-05-21T10:12:12;25.30;99.90
2391;DHT22;22957;50.824;4.360;2023-05-21T10:14:38;25.90;99.90
2391;DHT22;22957;50.824;4.360;2023-05-21T10:17:05;26.00;99.10
2391;DHT22;22957;50.824;4.360;2023-05-21T10:19:33;23.90;99.90
2391;DHT22;22957;50.824;4.360;2023-05-21T10:22:01;23.00;99.90
2391;DHT22;22957;50.824;4.360;2023-05-21T10:24:28;23.30;99.90
2391;DHT22;22957;50.824;4.360;2023-05-21T10:26:55;23.20;99.90
2391;DHT22;22957;50.824;4.360;2023-05-21T10:29:22;25.70;99.90
2391;DHT22;22957;50.824;4.360;2023-05-21T10:31:48;23.80;99.90
2391;DHT22;22957;50.824;4.360;2023-05-21T10:34:15;23.80;99.90
2391;DHT22;22957;50.824;4.360;2023-05-21T10:36:42;25.40;99.90
2391;DHT22;22957;50.824;4.360;2023-05-21T10:39:08;24.50;99.90
2391;DHT22;22957;50.824;4.360;2023-05-21T10:41:54;23.90;99.90
2391;DHT22;22957;50.824;4.360;2023-05-21T10:52:32;25.00;99.90
2391;DHT22;22957;50.824;4.360;2023-05-21T10:55:25;25.20;99.90
2391;DHT22;22957;50.824;4.360;2023-05-21T11:00:47;23.80;99.90
2391;DHT22;22957;50.824;4.360;2023-05-21T11:03:13;23.20;99.90
2391;DHT22;22957;50.824;4.360;2023-05-21T11:05:54;22.20;99.90
2391;DHT22;22957;50.824;4.360;2023-05-21T11:08:21;21.40;99.90
2391;DHT22;22957;50.824;4.360;2023-05-21T11:10:54;21.60;99.90
2391;DHT22;22957;50.824;4.360;2023-05-21T11:13:23;23.40;99.90
2391;DHT22;22957;50.824;4.360;2023-05-21T11:21:04;24.00;99.90
2391;DHT22;22957;50.824;4.360;2023-05-21T11:26:19;23.20;99.90
2391;DHT22;22957;50.824;4.360;2023-05-21T11:31:29;23.90;99.90
2391;DHT22;22957;50.824;4.360;2023-05-21T11:34:24;22.50;99.90
2391;DHT22;22957;50.824;4.360;2023-05-21T11:39:40;21.80;99.90
2391;DHT22;22957;50.824;4.360;2023-05-21T11:42:05;22.50;99.90
2391;DHT22;22957;50.824;4.360;2023-05-21T11:47:11;22.50;99.90
2391;DHT22;22957;50.824;4.360;2023-05-21T11:49:38;23.30;99.90
2391;DHT22;22957;50.824;4.360;2023-05-21T11:52:05;22.40;99.90
2391;DHT22;22957;50.824;4.360;2023-05-21T11:54:31;23.30;99.90
2391;DHT22;22957;50.824;4.360;2023-05-21T11:57:01;24.40;99.90
2391;DHT22;22957;50.824;4.360;2023-05-21T11:59:27;23.00;99.90
2391;DHT22;22957;50.824;4.360;2023-05-21T12:01:56;24.80;99.90
2391;DHT22;22957;50.824;4.360;2023-05-21T12:04:23;24.00;99.90
2391;DHT22;22957;50.824;4.360;2023-05-21T12:06:53;22.60;99.90
2391;DHT22;22957;50.824;4.360;2023-05-21T12:09:19;22.70;99.90
2391;DHT22;22957;50.824;4.360;2023-05-21T12:11:45;23.80;99.90
2391;DHT22;22957;50.824;4.360;2023-05-21T12:14:11;22.30;99.90
2391;DHT22;22957;50.824;4.360;2023-05-21T12:16:38;21.30;99.90
2391;DHT22;22957;50.824;4.360;2023-05-21T12:19:04;22.50;99.90
2391;DHT22;22957;50.824;4.360;2023-05-21T12:21:31;23.50;99.90
2391;DHT22;22957;50.824;4.360;2023-05-21T12:23:57;24.30;99.90
2391;DHT22;22957;50.824;4.360;2023-05-21T12:26:26;23.90;99.90
2391;DHT22;22957;50.824;4.360;2023-05-21T12:28:55;24.80;99.90
2391;DHT22;22957;50.824;4.360;2023-05-21T12:31:22;24.10;99.90
2391;DHT22;22957;50.824;4.360;2023-05-21T12:33:51;23.30;99.90
2391;DHT22;22957;50.824;4.360;2023-05-21T12:36:27;25.50;99.90
2391;DHT22;22957;50.824;4.360;2023-05-21T12:38:54;23.50;99.90
2391;DHT22;22957;50.824;4.360;2023-05-21T12:41:21;24.30;99.90
2391;DHT22;22957;50.824;4.360;2023-05-21T12:43:47;24.90;99.90
2391;DHT22;22957;50.824;4.360;2023-05-21T12:46:14;25.10;99.90
2391;DHT22;22957;50.824;4.360;2023-05-21T12:48:53;24.40;99.90
2391;DHT22;22957;50.824;4.360;2023-05-21T12:51:21;21.80;99.90
2391;DHT22;22957;50.824;4.360;2023-05-21T12:53:47;23.60;99.90
2391;DHT22;22957;50.824;4.360;2023-05-21T12:56:14;23.40;99.90
2391;DHT22;22957;50.824;4.360;2023-05-21T12:58:41;23.30;99.90
2391;DHT22;22957;50.824;4.360;2023-05-21T13:01:07;22.40;99.90
2391;DHT22;22957;50.824;4.360;2023-05-21T13:03:34;22.00;99.90
2391;DHT22;22957;50.824;4.360;2023-05-21T13:06:01;22.80;99.90
2391;DHT22;22957;50.824;4.360;2023-05-21T13:08:27;24.00;99.90
2391;DHT22;22957;50.824;4.360;2023-05-21T13:10:53;24.50;99.90
2391;DHT22;22957;50.824;4.360;2023-05-21T13:13:19;25.50;99.90
2391;DHT22;22957;50.824;4.360;2023-05-21T13:15:44;26.80;99.90
2391;DHT22;22957;50.824;4.360;2023-05-21T13:18:10;24.90;99.90
2391;DHT22;22957;50.824;4.360;2023-05-21T13:20:37;25.60;99.90
2391;DHT22;22957;50.824;4.360;2023-05-21T13:23:02;25.50;99.90
2391;DHT22;22957;50.824;4.360;2023-05-21T13:25:29;22.60;99.90
2391;DHT22;22957;50.824;4.360;2023-05-21T13:28:02;22.40;99.90
2391;DHT22;22957;50.824;4.360;2023-05-21T13:30:28;23.20;99.90
2391;DHT22;22957;50.824;4.360;2023-05-21T13:32:54;23.80;99.90
2391;DHT22;22957;50.824;4.360;2023-05-21T13:35:20;25.10;99.90
2391;DHT22;22957;50.824;4.360;2023-05-21T13:37:46;25.10;99.90
2391;DHT22;22957;50.824;4.360;2023-05-21T13:40:13;24.40;99.90
2391;DHT22;22957;50.824;4.360;2023-05-21T13:42:39;25.50;99.90
2391;DHT22;22957;50.824;4.360;2023-05-21T13:45:08;27.10;99.90
2391;DHT22;22957;50.824;4.360;2023-05-21T13:47:34;25.50;99.90
2391;DHT22;22957;50.824;4.360;2023-05-21T13:50:00;24.50;99.90
2391;DHT22;22957;50.824;4.360;2023-05-21T13:52:26;25.20;99.90
2391;DHT22;22957;50.824;4.360;2023-05-21T13:54:51;26.90;99.90
2391;DHT22;22957;50.824;4.360;2023-05-21T13:57:17;26.00;99.90
2391;DHT22;22957;50.824;4.360;2023-05-21T13:59:43;26.30;99.90
2391;DHT22;22957;50.824;4.360;2023-05-21T14:02:09;25.70;99.90
2391;DHT22;22957;50.824;4.360;2023-05-21T14:04:35;27.30;99.90
2391;DHT22;22957;50.824;4.360;2023-05-21T14:07:01;26.60;99.90
2391;DHT22;22957;50.824;4.360;2023-05-21T14:09:28;26.50;99.90
2391;DHT22;22957;50.824;4.360;2023-05-21T14:11:54;27.10;99.90
2391;DHT22;22957;50.824;4.360;2023-05-21T14:14:20;26.10;99.90
2391;DHT22;22957;50.824;4.360;2023-05-21T14:16:47;25.40;99.90
2391;DHT22;22957;50.824;4.360;2023-05-21T14:19:13;26.40;99.90
2391;DHT22;22957;50.824;4.360;2023-05-21T14:21:39;25.50;99.90
2391;DHT22;22957;50.824;4.360;2023-05-21T14:24:05;23.50;99.90
2391;DHT22;22957;50.824;4.360;2023-05-21T14:26:31;24.20;99.90
2391;DHT22;22957;50.824;4.360;2023-05-21T14:28:56;23.50;99.90
2391;DHT22;22957;50.824;4.360;2023-05-21T14:31:22;25.40;99.90
2391;DHT22;22957;50.824;4.360;2023-05-21T14:33:49;25.80;99.90
2391;DHT22;22957;50.824;4.360;2023-05-21T14:36:15;23.30;99.90
2391;DHT22;22957;50.824;4.360;2023-05-21T14:38:41;25.10;99.90
2391;DHT22;22957;50.824;4.360;2023-05-21T14:41:07;26.20;99.90
2391;DHT22;22957;50.824;4.360;2023-05-21T14:43:34;25.40;99.90
2391;DHT22;22957;50.824;4.360;2023-05-21T14:46:00;27.30;99.90
2391;DHT22;22957;50.824;4.360;2023-05-21T14:48:26;27.10;99.90
2391;DHT22;22957;50.824;4.360;2023-05-21T14:50:52;27.60;99.90
2391;DHT22;22957;50.824;4.360;2023-05-21T14:53:18;24.80;99.90
2391;DHT22;22957;50.824;4.360;2023-05-21T14:55:44;25.50;99.90
2391;DHT22;22957;50.824;4.360;2023-05-21T14:58:10;27.40;99.90
2391;DHT22;22957;50.824;4.360;2023-05-21T15:00:36;27.60;99.90
2391;DHT22;22957;50.824;4.360;2023-05-21T15:03:03;26.10;99.90
2391;DHT22;22957;50.824;4.360;2023-05-21T15:05:29;26.30;99.90
2391;DHT22;22957;50.824;4.360;2023-05-21T15:07:56;25.50;99.90
2391;DHT22;22957;50.824;4.360;2023-05-21T15:10:22;25.50;99.90
2391;DHT22;22957;50.824;4.360;2023-05-21T15:12:49;26.40;99.90
2391;DHT22;22957;50.824;4.360;2023-05-21T15:15:15;26.50;99.90
2391;DHT22;22957;50.824;4.360;2023-05-21T15:17:42;25.00;99.90
2391;DHT22;22957;50.824;4.360;2023-05-21T15:20:08;24.20;99.90
2391;DHT22;22957;50.824;4.360;2023-05-21T15:22:34;25.70;99.90
2391;DHT22;22957;50.824;4.360;2023-05-21T15:25:00;25.70;99.90
2391;DHT22;22957;50.824;4.360;2023-05-21T15:27:25;25.60;99.90
2391;DHT22;22957;50.824;4.360;2023-05-21T15:29:51;25.50;99.90
2391;DHT22;22957;50.824;4.360;2023-05-21T15:32:17;24.60;99.90
2391;DHT22;22957;50.824;4.360;2023-05-21T15:34:45;23.10;99.90
2391;DHT22;22957;50.824;4.360;2023-05-21T15:37:11;23.30;99.90
2391;DHT22;22957;50.824;4.360;2023-05-21T15:39:40;23.10;99.90
2391;DHT22;22957;50.824;4.360;2023-05-21T15:42:06;22.60;99.90
2391;DHT22;22957;50.824;4.360;2023-05-21T15:44:31;24.30;99.90
2391;DHT22;22957;50.824;4.360;2023-05-21T15:46:57;24.70;99.90
2391;DHT22;22957;50.824;4.360;2023-05-21T15:49:22;25.60;99.90
2391;DHT22;22957;50.824;4.360;2023-05-21T15:51:48;25.80;99.90
2391;DHT22;22957;50.824;4.360;2023-05-21T15:54:14;25.80;99.90
2391;DHT22;22957;50.824;4.360;2023-05-21T15:56:42;26.00;99.90
2391;DHT22;22957;50.824;4.360;2023-05-21T15:59:07;25.40;99.90
2391;DHT22;22957;50.824;4.360;2023-05-21T16:01:33;25.80;99.90
2391;DHT22;22957;50.824;4.360;2023-05-21T16:04:00;26.60;99.90
2391;DHT22;22957;50.824;4.360;2023-05-21T16:06:26;26.30;99.90
2391;DHT22;22957;50.824;4.360;2023-05-21T16:08:52;26.10;99.90
2391;DHT22;22957;50.824;4.360;2023-05-21T16:11:17;24.00;99.90